PWSweather.com
Personal Weather Stations
Station Observations
KOTALAMPI
JyvaskylaFI 40640

JyvaskylaFI 40640

Lat: 62.2331981, Lon: 25.6749684

Elevation: 160

Station Type: Oregon tieteellisen WMR88

Latest ConditionsUpdated 10:30:17 PM GMT+02:02 Wednesday, Jun 20, 2018
Currently Today's Max Today's Min Today's Average
Temperature 54.3°F12.4°C 67.3°F19.6°C 48.7°F9.3°C 58.0°F14.4°C
Dew Point 32.8°F0.4°C 44.4°F6.9°C 32.8°F0.4°C 41.4°F5.2°C
Winds 3.1 mph WNW5.0 kmh WNW 7.6 mph -12.2 kmh - - 4.7 mph 7.6 kmh
Wind Gusts 3.1 mph5.0 kmh 11.0 mph17.7 kmh - -
Humidity 44% 81% 38% 56%
Pressure 29.53 in1000.0 mb 29.53 in1000.0 mb 29.36 in994.2 mb -
Hour Temp Dew Point Humidity Winds Wind Gusts Pressure Precip Precip Rate Daily Precip Total
10:30 PM 54.3°F12.4°C 32.8°F0.4°C 44% 3.1 mph WNW5.0 kmh WNW 3.1 mph5.0 kmh 29.53 in1000.0 mb 0.00 in0.0 mm 0.00 in0.0 mm 0.00 in0.0 mm
10:00 PM 55.9°F13.3°C 33.2°F0.7°C 42% 3.1 mph WNW5.0 kmh WNW 3.1 mph5.0 kmh 29.53 in1000.0 mb 0.00 in0.0 mm 0.00 in0.0 mm 0.00 in0.0 mm
09:30 PM 57.2°F14.0°C 33.7°F0.9°C 41% 3.1 mph WNW5.0 kmh WNW 3.1 mph5.0 kmh 29.53 in1000.0 mb 0.00 in0.0 mm 0.00 in0.0 mm 0.00 in0.0 mm
09:00 PM 58.6°F14.8°C 35.0°F1.7°C 41% 3.1 mph WNW5.0 kmh WNW 3.1 mph5.0 kmh 29.53 in1000.0 mb 0.00 in0.0 mm 0.00 in0.0 mm 0.00 in0.0 mm
08:30 PM 60.3°F15.7°C 35.8°F2.1°C 40% 3.4 mph WSW5.5 kmh WSW 3.4 mph5.5 kmh 29.53 in1000.0 mb 0.00 in0.0 mm 0.00 in0.0 mm 0.00 in0.0 mm
08:00 PM 61.3°F16.3°C 36.2°F2.3°C 39% 3.4 mph WSW5.5 kmh WSW 3.4 mph5.5 kmh 29.53 in1000.0 mb 0.00 in0.0 mm 0.00 in0.0 mm 0.00 in0.0 mm
07:30 PM 62.2°F16.8°C 37.0°F2.8°C 39% 4.4 mph WNW7.1 kmh WNW 4.9 mph7.9 kmh 29.53 in1000.0 mb 0.00 in0.0 mm 0.00 in0.0 mm 0.00 in0.0 mm
07:00 PM 63.0°F17.2°C 36.9°F2.7°C 38% 5.9 mph W9.5 kmh W 6.3 mph10.1 kmh 29.53 in1000.0 mb 0.00 in0.0 mm 0.00 in0.0 mm 0.00 in0.0 mm
06:30 PM 63.5°F17.5°C 37.4°F3.0°C 38% 5.4 mph WNW8.7 kmh WNW 5.4 mph8.7 kmh 29.53 in1000.0 mb 0.00 in0.0 mm 0.00 in0.0 mm 0.00 in0.0 mm
06:00 PM 64.4°F18.0°C 38.2°F3.4°C 38% 4.0 mph NW6.4 kmh NW 4.9 mph7.9 kmh 29.53 in1000.0 mb 0.00 in0.0 mm 0.00 in0.0 mm 0.00 in0.0 mm
05:30 PM 65.3°F18.5°C 40.3°F4.6°C 40% 3.6 mph NW5.8 kmh NW 4.9 mph7.9 kmh 29.53 in1000.0 mb 0.00 in0.0 mm 0.00 in0.0 mm 0.00 in0.0 mm
05:00 PM 64.9°F18.3°C 40.0°F4.4°C 40% 6.6 mph NW10.6 kmh NW 8.1 mph13.0 kmh 29.53 in1000.0 mb 0.00 in0.0 mm 0.00 in0.0 mm 0.00 in0.0 mm
04:30 PM 65.8°F18.8°C 40.8°F4.9°C 40% 6.6 mph W10.6 kmh W 7.2 mph11.6 kmh 29.53 in1000.0 mb 0.00 in0.0 mm 0.00 in0.0 mm 0.00 in0.0 mm
04:00 PM 65.8°F18.8°C 40.8°F4.9°C 40% 4.9 mph W7.9 kmh W 4.9 mph7.9 kmh 29.53 in1000.0 mb 0.00 in0.0 mm 0.00 in0.0 mm 0.00 in0.0 mm
03:30 PM 65.3°F18.5°C 41.0°F5.0°C 41% 4.7 mph NW7.6 kmh NW 8.1 mph13.0 kmh 29.53 in1000.0 mb 0.00 in0.0 mm 0.00 in0.0 mm 0.00 in0.0 mm
03:00 PM 65.8°F18.8°C 42.1°F5.6°C 42% 4.6 mph WNW7.4 kmh WNW 6.7 mph10.8 kmh 29.53 in1000.0 mb 0.00 in0.0 mm 0.00 in0.0 mm 0.00 in0.0 mm
02:30 PM 66.7°F19.3°C 43.5°F6.4°C 43% 6.5 mph WNW10.5 kmh WNW 11.0 mph17.7 kmh 29.53 in1000.0 mb 0.00 in0.0 mm 0.00 in0.0 mm 0.00 in0.0 mm
02:00 PM 67.3°F19.6°C 44.0°F6.7°C 43% 5.6 mph W9.0 kmh W 10.5 mph16.9 kmh 29.50 in999.0 mb 0.00 in0.0 mm 0.00 in0.0 mm 0.00 in0.0 mm
01:30 PM 66.4°F19.1°C 43.2°F6.2°C 43% 7.6 mph W12.2 kmh W 9.6 mph15.4 kmh 29.50 in999.0 mb 0.00 in0.0 mm 0.00 in0.0 mm 0.00 in0.0 mm
01:00 PM 65.3°F18.5°C 44.0°F6.7°C 46% 6.3 mph W10.1 kmh W 8.1 mph13.0 kmh 29.50 in999.0 mb 0.00 in0.0 mm 0.00 in0.0 mm 0.00 in0.0 mm
12:30 PM 64.4°F18.0°C 43.7°F6.5°C 47% 6.2 mph WNW10.0 kmh WNW 7.8 mph12.6 kmh 29.50 in999.0 mb 0.00 in0.0 mm 0.00 in0.0 mm 0.00 in0.0 mm
12:00 PM 63.0°F17.2°C 43.5°F6.4°C 49% 4.9 mph WNW7.9 kmh WNW 8.5 mph13.7 kmh 29.50 in999.0 mb 0.00 in0.0 mm 0.00 in0.0 mm 0.00 in0.0 mm
11:30 AM 62.2°F16.8°C 43.4°F6.3°C 50% 6.7 mph W10.8 kmh W 10.7 mph17.2 kmh 29.50 in999.0 mb 0.00 in0.0 mm 0.00 in0.0 mm 0.00 in0.0 mm
11:00 AM 61.5°F16.4°C 43.2°F6.2°C 51% 6.2 mph WNW10.0 kmh WNW 9.6 mph15.4 kmh 29.50 in999.0 mb 0.00 in0.0 mm 0.00 in0.0 mm 0.00 in0.0 mm
10:30 AM 59.5°F15.3°C 42.4°F5.8°C 53% 4.9 mph WNW7.9 kmh WNW 6.5 mph10.5 kmh 29.47 in998.0 mb 0.00 in0.0 mm 0.00 in0.0 mm 0.00 in0.0 mm
10:00 AM 58.8°F14.9°C 43.1°F6.2°C 56% 6.0 mph W9.7 kmh W 11.0 mph17.7 kmh 29.47 in998.0 mb 0.00 in0.0 mm 0.00 in0.0 mm 0.00 in0.0 mm
09:30 AM 57.6°F14.2°C 42.4°F5.8°C 57% 5.9 mph WNW9.5 kmh WNW 7.6 mph12.2 kmh 29.47 in998.0 mb 0.00 in0.0 mm 0.00 in0.0 mm 0.00 in0.0 mm
09:00 AM 57.0°F13.9°C 42.8°F6.0°C 59% 5.6 mph WNW9.0 kmh WNW 7.8 mph12.6 kmh 29.47 in998.0 mb 0.00 in0.0 mm 0.00 in0.0 mm 0.00 in0.0 mm
08:30 AM 56.5°F13.6°C 44.0°F6.7°C 63% 5.7 mph WNW9.2 kmh WNW 7.2 mph11.6 kmh 29.45 in997.3 mb 0.00 in0.0 mm 0.00 in0.0 mm 0.00 in0.0 mm
08:00 AM 55.8°F13.2°C 43.8°F6.6°C 64% 4.8 mph NW7.7 kmh NW 10.7 mph17.2 kmh 29.45 in997.3 mb 0.00 in0.0 mm 0.00 in0.0 mm 0.00 in0.0 mm
07:30 AM 54.7°F12.6°C 43.9°F6.6°C 67% 4.7 mph NW7.6 kmh NW 6.3 mph10.1 kmh 29.45 in997.3 mb 0.00 in0.0 mm 0.00 in0.0 mm 0.00 in0.0 mm
07:00 AM 54.3°F12.4°C 44.4°F6.9°C 69% 5.7 mph WNW9.2 kmh WNW 8.5 mph13.7 kmh 29.45 in997.3 mb 0.00 in0.0 mm 0.00 in0.0 mm 0.00 in0.0 mm
06:30 AM 53.1°F11.7°C 44.3°F6.8°C 72% 4.7 mph W7.6 kmh W 5.6 mph9.0 kmh 29.45 in997.3 mb 0.00 in0.0 mm 0.00 in0.0 mm 0.00 in0.0 mm
06:00 AM 52.0°F11.1°C 43.6°F6.4°C 73% 5.6 mph W9.0 kmh W 5.6 mph9.0 kmh 29.45 in997.3 mb 0.00 in0.0 mm 0.00 in0.0 mm 0.00 in0.0 mm
05:30 AM 50.9°F10.5°C 43.3°F6.3°C 75% 2.7 mph WNW4.3 kmh WNW 2.7 mph4.3 kmh 29.45 in997.3 mb 0.00 in0.0 mm 0.00 in0.0 mm 0.00 in0.0 mm
05:00 AM 50.0°F10.0°C 42.7°F5.9°C 76% 3.3 mph W5.3 kmh W 3.4 mph5.5 kmh 29.41 in995.9 mb 0.00 in0.0 mm 0.00 in0.0 mm 0.00 in0.0 mm
04:30 AM 49.3°F9.6°C 43.0°F6.1°C 79% 3.1 mph WNW5.0 kmh WNW 3.6 mph5.8 kmh 29.41 in995.9 mb 0.00 in0.0 mm 0.00 in0.0 mm 0.00 in0.0 mm
04:00 AM 48.7°F9.3°C 42.5°F5.8°C 79% 2.9 mph WNW4.7 kmh WNW 2.9 mph4.7 kmh 29.41 in995.9 mb 0.00 in0.0 mm 0.00 in0.0 mm 0.00 in0.0 mm
03:30 AM 49.3°F9.6°C 43.0°F6.1°C 79% 4.6 mph WSW7.4 kmh WSW 5.4 mph8.7 kmh 29.41 in995.9 mb 0.00 in0.0 mm 0.00 in0.0 mm 0.00 in0.0 mm
03:00 AM 49.1°F9.5°C 42.9°F6.1°C 79% 3.6 mph WSW5.8 kmh WSW 3.6 mph5.8 kmh 29.41 in995.9 mb 0.00 in0.0 mm 0.00 in0.0 mm 0.00 in0.0 mm
02:30 AM 49.5°F9.7°C 43.2°F6.2°C 79% 3.6 mph WSW5.8 kmh WSW 3.6 mph5.8 kmh 29.39 in995.3 mb 0.00 in0.0 mm 0.00 in0.0 mm 0.00 in0.0 mm
02:00 AM 49.6°F9.8°C 43.7°F6.5°C 80% 3.3 mph WSW5.3 kmh WSW 3.6 mph5.8 kmh 29.39 in995.3 mb 0.00 in0.0 mm 0.00 in0.0 mm 0.00 in0.0 mm
01:30 AM 49.6°F9.8°C 44.0°F6.7°C 81% 3.6 mph W5.8 kmh W 3.8 mph6.1 kmh 29.39 in995.3 mb 0.00 in0.0 mm 0.00 in0.0 mm 0.00 in0.0 mm
01:00 AM 49.6°F9.8°C 44.0°F6.7°C 81% 4.0 mph W6.4 kmh W 6.3 mph10.1 kmh 29.39 in995.3 mb 0.00 in0.0 mm 0.00 in0.0 mm 0.00 in0.0 mm
12:30 AM 50.0°F10.0°C 44.1°F6.7°C 80% 4.0 mph WSW6.4 kmh WSW 4.3 mph6.9 kmh 29.36 in994.2 mb 0.00 in0.0 mm 0.00 in0.0 mm 0.00 in0.0 mm
12:00 AM 50.5°F10.3°C 44.3°F6.8°C 79% 4.2 mph WSW6.8 kmh WSW 6.0 mph9.7 kmh 29.39 in995.3 mb 0.00 in0.0 mm 0.00 in0.0 mm 0.00 in0.0 mm